createdAt,value
2022-07-30T00:04:02.474Z,24.19
2022-07-30T00:09:17.752Z,24.19
2022-07-30T00:14:32.732Z,24.18
2022-07-30T00:19:47.671Z,24.17
2022-07-30T00:25:02.674Z,24.17
2022-07-30T00:30:17.759Z,24.15
2022-07-30T00:35:32.726Z,24.15
2022-07-30T00:40:48.002Z,24.15
2022-07-30T00:46:04.100Z,24.15
2022-07-30T00:51:19.679Z,24.14
2022-07-30T00:56:34.745Z,24.15
2022-07-30T01:01:49.982Z,24.13
2022-07-30T01:07:05.691Z,24.14
2022-07-30T01:12:20.745Z,24.13
2022-07-30T01:17:35.964Z,24.12
2022-07-30T01:22:51.740Z,24.11
2022-07-30T01:28:06.693Z,24.11
2022-07-30T01:33:21.765Z,24.10
2022-07-30T01:38:36.996Z,24.08
2022-07-30T01:43:54.025Z,24.08
2022-07-30T01:49:11.707Z,24.07
2022-07-30T01:54:26.688Z,24.08
2022-07-30T01:59:41.733Z,24.07
2022-07-30T02:04:56.683Z,24.08
2022-07-30T02:10:11.732Z,24.08
2022-07-30T02:15:29.032Z,24.07
2022-07-30T02:20:45.028Z,24.07
2022-07-30T02:26:05.027Z,24.05
2022-07-30T02:31:22.039Z,24.05
2022-07-30T02:36:39.745Z,24.05
2022-07-30T02:41:54.691Z,24.04
2022-07-30T02:47:09.759Z,24.04
2022-07-30T02:52:34.943Z,24.04
2022-07-30T02:57:50.941Z,24.02
2022-07-30T03:03:06.689Z,24.02
2022-07-30T03:08:22.015Z,24.00
2022-07-30T03:13:37.752Z,24.01
2022-07-30T03:18:52.994Z,24.00
2022-07-30T03:24:08.702Z,24.00
2022-07-30T03:29:23.753Z,24.00
2022-07-30T03:34:38.809Z,23.99
2022-07-30T03:39:55.049Z,23.98
2022-07-30T03:45:11.700Z,23.98
2022-07-30T03:50:26.697Z,23.97
2022-07-30T03:55:42.730Z,23.97
2022-07-30T04:01:34.797Z,23.96
2022-07-30T04:06:58.924Z,23.96
2022-07-30T04:12:14.758Z,23.96
2022-07-30T04:17:29.766Z,23.96
2022-07-30T04:22:47.059Z,23.95
2022-07-30T04:28:04.129Z,23.91
2022-07-30T04:33:19.691Z,23.95
2022-07-30T04:39:04.077Z,23.95
2022-07-30T04:44:20.068Z,23.96
2022-07-30T04:49:55.709Z,23.96
2022-07-30T04:55:12.756Z,23.96
2022-07-30T05:00:32.396Z,23.96
2022-07-30T05:05:49.793Z,23.95
2022-07-30T05:11:10.702Z,23.94
2022-07-30T05:16:26.047Z,23.94
2022-07-30T05:21:42.727Z,23.94
2022-07-30T05:26:57.973Z,23.93
2022-07-30T05:32:13.456Z,23.92
2022-07-30T05:37:29.981Z,23.92
2022-07-30T05:42:45.700Z,23.91
2022-07-30T05:48:00.716Z,23.92
2022-07-30T05:53:15.699Z,23.89
2022-07-30T05:58:56.758Z,23.88
2022-07-30T06:04:34.739Z,23.87
2022-07-30T06:09:49.717Z,23.86
2022-07-30T06:15:04.778Z,23.87
2022-07-30T06:20:21.741Z,23.88
2022-07-30T06:26:09.028Z,23.87
2022-07-30T06:31:25.758Z,23.86
2022-07-30T06:36:41.700Z,23.87
2022-07-30T06:42:02.013Z,23.85
2022-07-30T06:47:41.060Z,23.84
2022-07-30T06:52:56.749Z,23.86
2022-07-30T06:58:30.770Z,23.85
2022-07-30T07:04:03.805Z,23.87
2022-07-30T07:09:20.762Z,23.87
2022-07-30T07:15:10.723Z,23.88
2022-07-30T07:20:26.738Z,23.87
2022-07-30T07:25:46.086Z,23.87
2022-07-30T07:31:01.869Z,23.87
2022-07-30T07:36:18.059Z,23.87
2022-07-30T07:41:48.760Z,23.88
2022-07-30T07:47:06.994Z,23.88
2022-07-30T07:52:28.730Z,23.87
2022-07-30T07:57:45.730Z,23.88
2022-07-30T08:03:03.045Z,23.88
2022-07-30T08:08:19.745Z,23.89
2022-07-30T08:13:54.742Z,23.89
2022-07-30T08:19:28.768Z,23.87
2022-07-30T08:24:57.787Z,23.86
2022-07-30T08:30:12.775Z,23.87
2022-07-30T08:35:28.061Z,23.88
2022-07-30T08:40:43.704Z,23.87
2022-07-30T08:46:02.809Z,23.86
2022-07-30T08:51:30.750Z,23.88
2022-07-30T08:56:51.766Z,23.86
2022-07-30T09:02:12.035Z,23.86
2022-07-30T09:07:40.033Z,23.87
2022-07-30T09:13:01.724Z,23.86
2022-07-30T09:18:16.727Z,23.87
2022-07-30T09:23:31.748Z,23.86
2022-07-30T09:29:18.998Z,23.88
2022-07-30T09:34:54.012Z,23.87
2022-07-30T09:40:32.109Z,23.86
2022-07-30T09:46:08.036Z,23.87
2022-07-30T09:51:24.709Z,23.86
2022-07-30T09:57:01.900Z,23.88
2022-07-30T10:02:18.077Z,23.88
2022-07-30T10:07:53.063Z,23.89
2022-07-30T10:13:09.058Z,23.89
2022-07-30T10:18:28.716Z,23.90
2022-07-30T10:24:18.765Z,23.89
2022-07-30T10:30:04.126Z,23.89
2022-07-30T10:35:34.261Z,23.90
2022-07-30T10:40:53.714Z,23.91
2022-07-30T10:46:19.875Z,23.92
2022-07-30T10:51:37.741Z,23.94
2022-07-30T10:56:52.724Z,23.95
2022-07-30T11:02:08.078Z,23.97
2022-07-30T11:07:23.803Z,23.98
2022-07-30T11:12:38.732Z,23.95
2022-07-30T11:17:54.731Z,24.02
2022-07-30T11:23:10.546Z,24.05
2022-07-30T11:28:30.059Z,24.06
2022-07-30T11:33:46.057Z,24.08
2022-07-30T11:39:06.767Z,24.10
2022-07-30T11:44:22.745Z,24.11
2022-07-30T11:49:38.022Z,24.15
2022-07-30T11:54:54.084Z,24.16
2022-07-30T12:00:10.089Z,24.18
2022-07-30T12:05:26.065Z,24.20
2022-07-30T12:10:41.787Z,24.23
2022-07-30T12:15:56.747Z,24.25
2022-07-30T12:21:12.088Z,24.26
2022-07-30T12:26:27.720Z,24.28
2022-07-30T12:31:42.856Z,24.30
2022-07-30T12:36:57.823Z,24.31
2022-07-30T12:42:12.743Z,24.34
2022-07-30T12:47:27.732Z,24.35
2022-07-30T12:52:42.818Z,24.38
2022-07-30T12:57:57.762Z,24.40
2022-07-30T13:03:12.745Z,24.42
2022-07-30T13:08:27.794Z,24.44
2022-07-30T13:13:42.781Z,24.46
2022-07-30T13:18:57.736Z,24.48
2022-07-30T13:24:17.864Z,24.49
2022-07-30T13:29:33.766Z,24.51
2022-07-30T13:34:49.058Z,24.54
2022-07-30T13:40:04.761Z,24.55
2022-07-30T13:45:19.780Z,24.57
2022-07-30T13:50:34.752Z,24.59
2022-07-30T13:55:50.043Z,24.60
2022-07-30T14:01:05.801Z,24.61
2022-07-30T14:06:20.759Z,24.63
2022-07-30T14:11:35.717Z,24.65
2022-07-30T14:16:50.745Z,24.66
2022-07-30T14:22:08.751Z,24.68
2022-07-30T14:27:24.034Z,24.70
2022-07-30T14:32:39.744Z,24.72
2022-07-30T14:37:54.725Z,24.73
2022-07-30T14:43:09.742Z,24.74
2022-07-30T14:48:25.158Z,24.75
2022-07-30T14:53:41.059Z,24.75
2022-07-30T14:58:56.772Z,24.77
2022-07-30T15:04:11.818Z,24.78
2022-07-30T15:09:26.730Z,24.79
2022-07-30T15:14:42.109Z,24.81
2022-07-30T15:19:59.746Z,24.81
2022-07-30T15:25:14.838Z,24.82
2022-07-30T15:30:29.752Z,24.82
2022-07-30T15:35:44.789Z,24.84
2022-07-30T15:41:00.066Z,24.84
2022-07-30T15:46:15.810Z,24.85
2022-07-30T15:51:30.777Z,24.83
2022-07-30T15:56:45.760Z,24.81
2022-07-30T16:02:01.230Z,24.80
2022-07-30T16:07:16.529Z,24.80
2022-07-30T16:12:31.851Z,24.79
2022-07-30T16:17:47.169Z,24.79
2022-07-30T16:23:02.734Z,24.79
2022-07-30T16:28:18.053Z,24.79
2022-07-30T16:33:34.082Z,24.78
2022-07-30T16:38:49.770Z,24.78
2022-07-30T16:44:04.782Z,24.77
2022-07-30T16:49:19.804Z,24.77
2022-07-30T16:54:34.816Z,24.78
2022-07-30T16:59:50.078Z,24.78
2022-07-30T17:05:05.981Z,24.77
2022-07-30T17:10:22.913Z,24.78
2022-07-30T17:15:40.851Z,24.78
2022-07-30T17:20:56.066Z,24.78
2022-07-30T17:26:11.770Z,24.77
2022-07-30T17:31:26.799Z,24.78
2022-07-30T17:36:41.770Z,24.77
2022-07-30T17:42:03.076Z,24.78
2022-07-30T17:47:18.773Z,24.78
2022-07-30T17:52:34.977Z,24.77
2022-07-30T17:57:51.040Z,24.77
2022-07-30T18:03:07.141Z,24.77
2022-07-30T18:08:22.834Z,24.77
2022-07-30T18:13:37.747Z,24.76
2022-07-30T18:18:53.055Z,24.75
2022-07-30T18:24:09.057Z,24.75
2022-07-30T18:29:28.818Z,24.75
2022-07-30T18:34:43.917Z,24.73
2022-07-30T18:39:58.753Z,24.74
2022-07-30T18:45:15.786Z,24.74
2022-07-30T18:50:30.834Z,24.73
2022-07-30T18:55:45.796Z,24.74
2022-07-30T19:01:01.100Z,24.73
2022-07-30T19:06:16.800Z,24.72
2022-07-30T19:11:36.834Z,24.71
2022-07-30T19:16:53.063Z,24.71
2022-07-30T19:22:08.839Z,24.70
2022-07-30T19:27:23.806Z,24.70
2022-07-30T19:32:39.140Z,24.70
2022-07-30T19:37:55.073Z,24.72
2022-07-30T19:43:57.677Z,24.72
2022-07-30T19:49:14.101Z,24.73
2022-07-30T19:54:30.085Z,24.73
2022-07-30T19:59:59.566Z,24.75
2022-07-30T20:05:24.846Z,24.75
2022-07-30T20:10:40.738Z,24.75
2022-07-30T20:15:55.833Z,24.76
2022-07-30T20:21:15.438Z,24.75
2022-07-30T20:26:30.795Z,24.75
2022-07-30T20:31:45.807Z,24.75
2022-07-30T20:37:04.329Z,24.75
2022-07-30T20:42:31.756Z,24.74
2022-07-30T20:47:47.043Z,24.73
2022-07-30T20:53:03.148Z,24.73
2022-07-30T20:58:18.832Z,24.73
2022-07-30T21:03:34.132Z,24.74
2022-07-30T21:08:52.067Z,24.74
2022-07-30T21:14:08.716Z,24.74
2022-07-30T21:19:23.779Z,24.74
2022-07-30T21:24:38.810Z,24.73
2022-07-30T21:29:54.075Z,24.73
2022-07-30T21:35:11.712Z,24.73
2022-07-30T21:40:26.776Z,24.74
2022-07-30T21:45:42.115Z,24.74
2022-07-30T21:50:57.839Z,24.74
2022-07-30T21:56:13.806Z,24.74
2022-07-30T22:01:32.920Z,24.74
2022-07-30T22:06:48.776Z,24.74
2022-07-30T22:12:09.792Z,24.73
2022-07-30T22:17:37.197Z,24.73
2022-07-30T22:23:03.106Z,24.73
2022-07-30T22:28:20.061Z,24.73
2022-07-30T22:33:35.771Z,24.73
2022-07-30T22:38:58.489Z,24.73
2022-07-30T22:44:14.793Z,24.72
2022-07-30T22:49:45.971Z,24.73
2022-07-30T22:55:09.082Z,24.73
2022-07-30T23:00:27.895Z,24.72
2022-07-30T23:05:56.798Z,24.72
2022-07-30T23:11:12.826Z,24.72
2022-07-30T23:16:28.097Z,24.73
2022-07-30T23:21:48.856Z,24.73
2022-07-30T23:27:04.221Z,24.73
2022-07-30T23:32:19.540Z,24.73
2022-07-30T23:37:37.888Z,24.73
2022-07-30T23:43:03.776Z,24.73
2022-07-30T23:48:19.099Z,24.72
2022-07-30T23:53:34.855Z,24.72
2022-07-30T23:58:49.785Z,24.73
